createdAt,value
2019-02-19T00:00:23.456Z,100329.05
2019-02-19T00:02:52.405Z,100336.53
2019-02-19T00:05:20.244Z,100338.52
2019-02-19T00:07:48.197Z,100338.00
2019-02-19T00:10:16.247Z,100340.09
2019-02-19T00:12:44.734Z,100330.56
2019-02-19T00:15:12.681Z,100335.19
2019-02-19T00:17:40.481Z,100325.74
2019-02-19T00:20:08.449Z,100325.13
2019-02-19T00:22:36.294Z,100317.17
2019-02-19T00:25:04.577Z,100313.08
2019-02-19T00:27:32.467Z,100315.03
2019-02-19T00:30:00.372Z,100311.92
2019-02-19T00:32:28.320Z,100308.94
2019-02-19T00:34:56.837Z,100309.06
2019-02-19T00:37:24.814Z,100314.69
2019-02-19T00:39:52.631Z,100322.09
2019-02-19T00:42:21.255Z,100311.33
2019-02-19T00:44:49.516Z,100309.78
2019-02-19T00:47:17.706Z,100310.72
2019-02-19T00:49:47.574Z,100314.38
2019-02-19T00:52:15.444Z,100310.56
2019-02-19T00:54:43.364Z,100311.02
2019-02-19T00:57:11.391Z,100300.50
2019-02-19T00:59:39.466Z,100305.95
2019-02-19T01:02:08.195Z,100301.58
2019-02-19T01:04:36.096Z,100308.25
2019-02-19T01:07:04.105Z,100306.94
2019-02-19T01:09:31.958Z,100299.86
2019-02-19T01:11:59.907Z,100303.51
2019-02-19T01:14:28.097Z,100299.54
2019-02-19T01:16:56.010Z,100299.25
2019-02-19T01:19:23.902Z,100292.46
2019-02-19T01:21:51.825Z,100295.38
2019-02-19T01:24:19.610Z,100298.92
2019-02-19T01:26:47.664Z,100295.20
2019-02-19T01:29:15.446Z,100294.09
2019-02-19T01:31:43.270Z,100290.38
2019-02-19T01:34:11.050Z,100290.70
2019-02-19T01:36:39.818Z,100290.53
2019-02-19T01:39:07.743Z,100283.98
2019-02-19T01:41:35.624Z,100274.46
2019-02-19T01:44:03.658Z,100274.87
2019-02-19T01:46:31.575Z,100275.16
2019-02-19T01:48:59.424Z,100265.09
2019-02-19T01:51:27.450Z,100270.58
2019-02-19T01:53:55.493Z,100259.74
2019-02-19T01:56:24.157Z,100263.67
2019-02-19T01:58:52.082Z,100258.06
2019-02-19T02:01:20.073Z,100257.58
2019-02-19T02:03:47.979Z,100256.19
2019-02-19T02:06:15.826Z,100254.96
2019-02-19T02:08:43.706Z,100253.57
2019-02-19T02:11:12.175Z,100251.53
2019-02-19T02:13:39.984Z,100252.21
2019-02-19T02:16:07.768Z,100250.63
2019-02-19T02:18:35.699Z,100257.36
2019-02-19T02:21:03.653Z,100253.64
2019-02-19T02:23:31.469Z,100248.89
2019-02-19T02:25:59.315Z,100243.38
2019-02-19T02:28:27.239Z,100245.25
2019-02-19T02:30:55.117Z,100240.59
2019-02-19T02:33:23.651Z,100243.05
2019-02-19T02:35:51.434Z,100241.94
2019-02-19T02:38:19.340Z,100235.59
2019-02-19T02:40:47.170Z,100233.18
2019-02-19T02:43:15.034Z,100231.25
2019-02-19T02:45:52.445Z,100234.52
2019-02-19T02:48:12.575Z,100237.44
2019-02-19T02:50:40.449Z,100238.83
2019-02-19T02:53:08.344Z,100239.77
2019-02-19T02:55:36.702Z,100237.72
2019-02-19T02:58:04.703Z,100244.37
2019-02-19T03:00:32.608Z,100239.22
2019-02-19T03:03:00.997Z,100235.42
2019-02-19T03:05:28.806Z,100228.79
2019-02-19T03:08:00.181Z,100233.65
2019-02-19T03:10:28.021Z,100231.97
2019-02-19T03:12:55.898Z,100230.78
2019-02-19T03:15:23.818Z,100230.03
2019-02-19T03:17:51.784Z,100227.50
2019-02-19T03:20:19.589Z,100231.25
2019-02-19T03:22:47.477Z,100231.25
2019-02-19T03:25:16.224Z,100233.13
2019-02-19T03:27:54.976Z,100235.28
2019-02-19T03:30:22.923Z,100227.16
2019-02-19T03:32:50.686Z,100227.83
2019-02-19T03:35:18.671Z,100227.54
2019-02-19T03:37:46.552Z,100223.81
2019-02-19T03:40:14.647Z,100218.41
2019-02-19T03:42:42.496Z,100219.72
2019-02-19T03:45:10.863Z,100222.33
2019-02-19T03:47:38.840Z,100222.41
2019-02-19T03:50:06.859Z,100226.07
2019-02-19T03:52:35.296Z,100220.47
2019-02-19T03:55:03.363Z,100215.52
2019-02-19T03:57:31.323Z,100216.01
2019-02-19T04:00:00.325Z,100213.95
2019-02-19T04:02:28.321Z,100205.01
2019-02-19T04:04:56.124Z,100208.92
2019-02-19T04:07:23.917Z,100211.62
2019-02-19T04:09:51.886Z,100210.80
2019-02-19T04:12:19.741Z,100203.41
2019-02-19T04:14:47.688Z,100204.27
2019-02-19T04:17:15.544Z,100203.89
2019-02-19T04:19:43.580Z,100195.77
2019-02-19T04:22:11.437Z,100195.52
2019-02-19T04:24:39.355Z,100196.44
2019-02-19T04:27:07.916Z,100200.06
2019-02-19T04:29:36.667Z,100198.88
2019-02-19T04:32:04.536Z,100201.00
2019-02-19T04:34:32.295Z,100194.95
2019-02-19T04:37:00.206Z,100195.15
2019-02-19T04:39:27.953Z,100193.84
2019-02-19T04:41:55.975Z,100199.44
2019-02-19T04:44:23.721Z,100186.01
2019-02-19T04:46:51.512Z,100183.02
2019-02-19T04:49:19.395Z,100181.35
2019-02-19T04:51:47.243Z,100180.42
2019-02-19T04:54:15.003Z,100176.88
2019-02-19T04:56:43.439Z,100166.88
2019-02-19T04:59:11.283Z,100162.77
2019-02-19T05:01:39.127Z,100174.06
2019-02-19T05:04:06.935Z,100171.09
2019-02-19T05:06:34.783Z,100166.42
2019-02-19T05:09:04.692Z,100171.28
2019-02-19T05:11:33.405Z,100174.08
2019-02-19T05:14:01.265Z,100172.03
2019-02-19T05:16:29.819Z,100161.78
2019-02-19T05:18:57.687Z,100166.63
2019-02-19T05:21:25.538Z,100164.21
2019-02-19T05:23:53.401Z,100159.92
2019-02-19T05:26:21.716Z,100159.26
2019-02-19T05:28:49.557Z,100163.73
2019-02-19T05:31:17.594Z,100171.12
2019-02-19T05:33:45.579Z,100168.50
2019-02-19T05:36:13.819Z,100160.67
2019-02-19T05:38:41.701Z,100162.55
2019-02-19T05:41:09.714Z,100172.13
2019-02-19T05:43:37.497Z,100173.06
2019-02-19T05:46:05.436Z,100170.19
2019-02-19T05:48:33.304Z,100172.87
2019-02-19T05:51:01.262Z,100178.58
2019-02-19T05:53:29.053Z,100174.10
2019-02-19T05:55:56.938Z,100174.18
2019-02-19T05:58:24.771Z,100182.49
2019-02-19T06:00:52.537Z,100186.48
2019-02-19T06:03:31.097Z,100183.50
2019-02-19T06:05:58.931Z,100178.02
2019-02-19T06:08:26.770Z,100181.64
2019-02-19T06:10:54.684Z,100187.72
2019-02-19T06:13:24.023Z,100187.79
2019-02-19T06:15:52.998Z,100188.64
2019-02-19T06:18:20.836Z,100186.41
2019-02-19T06:20:48.709Z,100183.05
2019-02-19T06:23:16.539Z,100186.78
2019-02-19T06:25:44.411Z,100197.86
2019-02-19T06:28:12.230Z,100190.03
2019-02-19T06:30:40.001Z,100192.56
2019-02-19T06:33:07.809Z,100194.61
2019-02-19T06:35:35.870Z,100204.38
2019-02-19T06:38:03.876Z,100204.30
2019-02-19T06:40:35.376Z,100205.87
2019-02-19T06:43:03.290Z,100206.61
2019-02-19T06:45:31.144Z,100202.06
2019-02-19T06:47:59.891Z,100200.94
2019-02-19T06:50:27.641Z,100202.50
2019-02-19T06:52:55.569Z,100200.56
2019-02-19T06:55:24.813Z,100207.27
2019-02-19T06:57:52.671Z,100203.16
2019-02-19T07:00:20.854Z,100212.48
2019-02-19T07:02:54.009Z,100212.66
2019-02-19T07:05:35.228Z,100210.68
2019-02-19T07:08:04.137Z,100213.84
2019-02-19T07:10:31.897Z,100200.88
2019-02-19T07:12:59.829Z,100204.87
2019-02-19T07:15:27.820Z,100204.39
2019-02-19T07:17:55.620Z,100196.45
2019-02-19T07:20:23.415Z,100189.41
2019-02-19T07:22:51.213Z,100197.52
2019-02-19T07:25:19.135Z,100196.44
2019-02-19T07:27:47.585Z,100194.90
2019-02-19T07:30:15.552Z,100195.60
2019-02-19T07:32:43.535Z,100192.95
2019-02-19T07:35:11.572Z,100199.05
2019-02-19T07:37:39.362Z,100195.84
2019-02-19T07:40:07.281Z,100191.09
2019-02-19T07:42:35.256Z,100199.22
2019-02-19T07:45:03.416Z,100200.52
2019-02-19T07:47:31.229Z,100195.53
2019-02-19T07:49:59.181Z,100189.08
2019-02-19T07:52:28.157Z,100187.55
2019-02-19T07:54:56.813Z,100189.23
2019-02-19T07:57:24.688Z,100187.91
2019-02-19T07:59:52.656Z,100186.81
2019-02-19T08:02:20.428Z,100185.61
2019-02-19T08:04:48.239Z,100182.94
2019-02-19T08:07:16.863Z,100178.72
2019-02-19T08:09:44.797Z,100189.02
2019-02-19T08:12:12.628Z,100177.88
2019-02-19T08:14:40.503Z,100184.90
2019-02-19T08:17:08.261Z,100179.42
2019-02-19T08:19:36.073Z,100178.33
2019-02-19T08:22:04.241Z,100179.63
2019-02-19T08:24:32.053Z,100171.98
2019-02-19T08:26:59.883Z,100176.83
2019-02-19T08:29:28.527Z,100179.41
2019-02-19T08:31:56.308Z,100173.25
2019-02-19T08:34:24.176Z,100167.55
2019-02-19T08:36:52.126Z,100171.85
2019-02-19T08:39:19.956Z,100173.17
2019-02-19T08:41:47.865Z,100174.72
2019-02-19T08:44:16.334Z,100176.09
2019-02-19T08:46:44.187Z,100179.25
2019-02-19T08:49:12.152Z,100179.50
2019-02-19T08:51:40.154Z,100187.23
2019-02-19T08:54:08.203Z,100184.08
2019-02-19T08:56:36.022Z,100194.88
2019-02-19T08:59:03.907Z,100190.45
2019-02-19T09:01:31.749Z,100194.91
2019-02-19T09:03:59.617Z,100186.02
2019-02-19T09:06:27.761Z,100192.77
2019-02-19T09:08:55.631Z,100189.17
2019-02-19T09:11:23.593Z,100190.36
2019-02-19T09:13:51.357Z,100199.05
2019-02-19T09:16:19.309Z,100195.16
2019-02-19T09:18:47.104Z,100191.02
2019-02-19T09:21:15.045Z,100194.38
2019-02-19T09:23:42.922Z,100188.14
2019-02-19T09:26:10.802Z,100192.55
2019-02-19T09:28:38.606Z,100184.27
2019-02-19T09:31:06.513Z,100171.36
2019-02-19T09:33:34.387Z,100173.66
2019-02-19T09:36:02.210Z,100182.05
2019-02-19T09:38:30.370Z,100174.64
2019-02-19T09:40:58.992Z,100173.89
2019-02-19T09:43:35.154Z,100179.13
2019-02-19T09:45:58.958Z,100174.64
2019-02-19T09:48:26.553Z,100184.05
2019-02-19T09:50:54.508Z,100192.52
2019-02-19T09:53:22.270Z,100181.16
2019-02-19T09:55:50.035Z,100176.23
2019-02-19T09:58:17.891Z,100181.33
2019-02-19T10:00:45.661Z,100173.11
2019-02-19T10:03:13.785Z,100173.39
2019-02-19T10:05:41.654Z,100173.02
2019-02-19T10:27:50.158Z,100159.86
2019-02-19T10:30:18.168Z,100172.35
2019-02-19T10:32:46.209Z,100151.34
2019-02-19T10:35:14.040Z,100159.36
2019-02-19T10:37:41.955Z,100162.08
2019-02-19T10:40:11.997Z,100163.94
2019-02-19T10:42:39.900Z,100147.55
2019-02-19T10:45:10.023Z,100140.95
2019-02-19T10:47:38.052Z,100136.00
2019-02-19T10:50:06.790Z,100143.84
2019-02-19T10:52:34.581Z,100139.39
2019-02-19T10:55:02.364Z,100142.06
2019-02-19T10:57:30.333Z,100145.73
2019-02-19T10:59:58.090Z,100147.58
2019-02-19T11:02:26.101Z,100154.05
2019-02-19T11:04:53.941Z,100138.77
2019-02-19T11:07:21.811Z,100137.09
2019-02-19T11:09:49.584Z,100143.25
2019-02-19T11:12:17.456Z,100127.80
2019-02-19T11:14:45.254Z,100133.77
2019-02-19T11:17:12.997Z,100131.75
2019-02-19T11:19:40.896Z,100137.20
2019-02-19T11:22:08.873Z,100141.34
2019-02-19T11:24:37.183Z,100141.34
2019-02-19T11:27:04.936Z,100133.30
2019-02-19T11:29:32.746Z,100125.28
2019-02-19T11:32:00.920Z,100123.15
2019-02-19T11:34:28.806Z,100123.15
2019-02-19T11:36:56.525Z,100118.13
2019-02-19T11:39:24.346Z,100128.39
2019-02-19T11:41:52.214Z,100122.55
2019-02-19T11:44:20.285Z,100119.44
2019-02-19T11:46:48.009Z,100119.44
2019-02-19T11:49:15.820Z,100119.19
2019-02-19T11:51:43.583Z,100106.64
2019-02-19T11:54:11.385Z,100104.72
2019-02-19T11:56:39.232Z,100104.72
2019-02-19T11:59:08.702Z,100102.75
2019-02-19T12:01:36.718Z,100098.19
2019-02-19T12:04:04.640Z,100098.19
2019-02-19T12:06:32.514Z,100100.29
2019-02-19T12:09:00.409Z,100100.29
2019-02-19T12:11:28.165Z,100086.90
2019-02-19T12:13:55.972Z,100086.90
2019-02-19T12:16:23.732Z,100096.16
2019-02-19T12:18:51.644Z,100101.41
2019-02-19T12:21:19.406Z,100093.63
2019-02-19T12:23:47.169Z,100093.84
2019-02-19T12:26:15.071Z,100095.70
2019-02-19T12:28:42.808Z,100095.38
2019-02-19T12:31:10.758Z,100097.43
2019-02-19T12:33:44.830Z,100095.67
2019-02-19T12:36:12.639Z,100095.23
2019-02-19T12:38:40.593Z,100096.56
2019-02-19T12:41:08.506Z,100095.13
2019-02-19T12:43:36.314Z,100085.02
2019-02-19T12:46:04.923Z,100082.29
2019-02-19T12:48:32.684Z,100084.84
2019-02-19T12:51:00.556Z,100084.84
2019-02-19T12:53:28.406Z,100083.27
2019-02-19T12:55:56.310Z,100074.41
2019-02-19T12:58:25.143Z,100068.69
2019-02-19T13:00:53.028Z,100077.28
2019-02-19T13:03:20.980Z,100081.61
2019-02-19T13:05:48.763Z,100076.20
2019-02-19T13:08:16.521Z,100078.52
2019-02-19T13:10:44.400Z,100080.86
2019-02-19T13:13:12.127Z,100077.55
2019-02-19T13:15:40.045Z,100081.49
2019-02-19T13:18:08.411Z,100075.38
2019-02-19T13:20:36.198Z,100077.80
2019-02-19T13:23:04.147Z,100080.00
2019-02-19T13:25:32.044Z,100080.25
2019-02-19T13:27:59.807Z,100087.05
2019-02-19T13:30:27.794Z,100077.42
2019-02-19T13:32:55.542Z,100083.65
2019-02-19T13:35:25.783Z,100066.27
2019-02-19T13:37:53.915Z,100078.92
2019-02-19T13:40:21.864Z,100075.40
2019-02-19T13:42:49.830Z,100097.31
2019-02-19T13:45:17.713Z,100081.53
2019-02-19T13:47:45.604Z,100076.97
2019-02-19T13:50:16.071Z,100082.57
2019-02-19T13:52:49.098Z,100078.27
2019-02-19T13:55:20.736Z,100079.36
2019-02-19T13:57:48.522Z,100081.83
2019-02-19T14:00:21.491Z,100081.51
2019-02-19T14:02:49.434Z,100095.34
2019-02-19T14:05:17.261Z,100077.64
2019-02-19T14:07:45.199Z,100086.62
2019-02-19T14:10:13.144Z,100081.34
2019-02-19T14:12:41.132Z,100086.42
2019-02-19T14:15:28.831Z,100088.14
2019-02-19T14:17:56.632Z,100077.58
2019-02-19T14:20:30.048Z,100081.97
2019-02-19T14:23:16.911Z,100071.91
2019-02-19T14:26:10.080Z,100076.67
2019-02-19T14:28:51.746Z,100076.88
2019-02-19T14:31:37.815Z,100064.49
2019-02-19T14:34:25.094Z,100073.41
2019-02-19T14:37:12.953Z,100078.75
2019-02-19T14:39:53.212Z,100078.64
2019-02-19T14:42:41.533Z,100079.12
2019-02-19T14:45:28.120Z,100079.12
2019-02-19T14:48:24.205Z,100071.89
2019-02-19T14:51:03.079Z,100071.50
2019-02-19T14:54:02.938Z,100068.44
2019-02-19T14:57:02.351Z,100074.31
2019-02-19T14:59:55.139Z,100083.09
2019-02-19T15:02:54.434Z,100079.30
2019-02-19T15:05:38.366Z,100083.59
2019-02-19T15:08:28.745Z,100095.46
2019-02-19T15:11:09.607Z,100089.82
2019-02-19T15:14:02.825Z,100092.05
2019-02-19T15:16:45.460Z,100100.94
2019-02-19T15:19:47.565Z,100097.92
2019-02-19T15:22:25.747Z,100098.87
2019-02-19T15:25:19.722Z,100094.64
2019-02-19T15:28:05.608Z,100097.73
2019-02-19T15:30:53.301Z,100097.14
2019-02-19T15:33:40.591Z,100097.14
2019-02-19T15:36:31.397Z,100095.02
2019-02-19T15:39:17.494Z,100089.47
2019-02-19T15:42:07.696Z,100083.13
2019-02-19T15:44:57.935Z,100081.85
2019-02-19T15:47:42.245Z,100082.53
2019-02-19T15:50:28.576Z,100084.56
2019-02-19T15:53:18.921Z,100085.45
2019-02-19T15:56:04.770Z,100083.33
2019-02-19T15:58:55.189Z,100093.70
2019-02-19T16:01:48.347Z,100085.45
2019-02-19T16:04:35.032Z,100090.11
2019-02-19T16:07:29.021Z,100089.80
2019-02-19T16:10:19.223Z,100094.95
2019-02-19T16:13:18.659Z,100090.84
2019-02-19T16:16:04.777Z,100089.84
2019-02-19T16:18:51.507Z,100093.17
2019-02-19T16:21:37.232Z,100093.19
2019-02-19T16:24:21.606Z,100093.20
2019-02-19T16:27:11.795Z,100094.87
2019-02-19T16:30:01.588Z,100092.55
2019-02-19T16:32:48.868Z,100107.84
2019-02-19T16:35:34.886Z,100118.15
2019-02-19T16:38:21.001Z,100111.52
2019-02-19T16:40:55.700Z,100122.80
2019-02-19T16:43:42.970Z,100122.80
2019-02-19T16:46:19.177Z,100117.73
2019-02-19T16:49:12.334Z,100117.73
2019-02-19T16:52:02.547Z,100147.09
2019-02-19T16:54:44.914Z,100147.09
2019-02-19T16:57:35.103Z,100144.59
2019-02-19T17:00:37.750Z,100144.59
2019-02-19T17:03:24.534Z,100144.77
2019-02-19T17:06:07.416Z,100144.77
2019-02-19T17:08:54.709Z,100151.11
2019-02-19T17:11:39.182Z,100161.19
2019-02-19T17:14:32.979Z,100175.54
2019-02-19T17:17:29.605Z,100179.11
2019-02-19T17:20:21.097Z,100184.36
2019-02-19T17:23:11.703Z,100184.36
2019-02-19T17:25:57.508Z,100192.20
2019-02-19T17:28:31.030Z,100192.20
2019-02-19T17:31:27.618Z,100199.34
2019-02-19T17:34:18.322Z,100203.14
2019-02-19T17:37:11.228Z,100202.58
2019-02-19T17:39:43.867Z,100213.31
2019-02-19T17:42:34.392Z,100219.59
2019-02-19T17:45:37.217Z,100223.27
2019-02-19T17:48:23.121Z,100226.19
2019-02-19T17:51:00.674Z,100226.19
2019-02-19T17:53:47.955Z,100227.06
2019-02-19T17:56:27.308Z,100227.36
2019-02-19T17:59:03.947Z,100224.12
2019-02-19T18:01:51.164Z,100228.38
2019-02-19T18:04:30.597Z,100225.30
2019-02-19T18:07:16.565Z,100230.94
2019-02-19T18:10:21.975Z,100213.05
2019-02-19T18:13:12.121Z,100221.03
2019-02-19T18:16:00.314Z,100226.67
2019-02-19T18:18:53.322Z,100230.64
2019-02-19T18:21:21.324Z,100231.51
2019-02-19T18:23:49.109Z,100230.03
2019-02-19T18:26:16.918Z,100223.34
2019-02-19T18:28:44.894Z,100238.36
2019-02-19T18:31:12.689Z,100242.84
2019-02-19T18:33:40.434Z,100237.67
2019-02-19T18:36:08.445Z,100242.68
2019-02-19T18:38:36.197Z,100237.89
2019-02-19T18:41:04.774Z,100244.50
2019-02-19T18:43:32.616Z,100252.23
2019-02-19T18:46:00.479Z,100256.89
2019-02-19T18:48:28.348Z,100251.94
2019-02-19T18:50:58.609Z,100249.71
2019-02-19T18:53:26.840Z,100248.26
2019-02-19T18:55:54.781Z,100248.60
2019-02-19T18:58:22.521Z,100237.45
2019-02-19T19:00:50.345Z,100240.80
2019-02-19T19:03:18.057Z,100246.03
2019-02-19T19:05:45.876Z,100249.87
2019-02-19T19:08:13.652Z,100254.41
2019-02-19T19:10:41.578Z,100256.42
2019-02-19T19:13:09.347Z,100256.20
2019-02-19T19:15:37.278Z,100251.96
2019-02-19T19:18:05.167Z,100267.84
2019-02-19T19:20:32.922Z,100266.52
2019-02-19T19:23:00.723Z,100271.17
2019-02-19T19:25:28.572Z,100268.50
2019-02-19T19:27:56.389Z,100278.16
2019-02-19T19:30:24.239Z,100276.27
2019-02-19T19:32:52.134Z,100291.03
2019-02-19T19:35:19.915Z,100288.80
2019-02-19T19:37:47.726Z,100293.05
2019-02-19T19:40:15.576Z,100291.26
2019-02-19T19:42:43.489Z,100288.11
2019-02-19T19:45:11.430Z,100287.78
2019-02-19T19:47:39.338Z,100293.47
2019-02-19T19:50:07.594Z,100289.42
2019-02-19T19:52:35.386Z,100294.53
2019-02-19T19:55:03.461Z,100287.16
2019-02-19T19:57:31.392Z,100291.04
2019-02-19T19:59:59.265Z,100298.69
2019-02-19T20:02:27.174Z,100298.49
2019-02-19T20:04:55.029Z,100304.44
2019-02-19T20:07:23.005Z,100306.92
2019-02-19T20:09:50.830Z,100302.68
2019-02-19T20:12:18.754Z,100307.80
2019-02-19T20:14:46.593Z,100305.69
2019-02-19T20:17:14.408Z,100305.52
2019-02-19T20:19:42.235Z,100308.16
2019-02-19T20:22:10.123Z,100308.89
2019-02-19T20:24:38.004Z,100312.39
2019-02-19T20:27:06.499Z,100303.45
2019-02-19T20:29:34.392Z,100306.34
2019-02-19T20:32:02.150Z,100304.21
2019-02-19T20:34:29.994Z,100293.39
2019-02-19T20:36:57.780Z,100293.83
2019-02-19T20:39:25.603Z,100296.05
2019-02-19T20:41:53.382Z,100302.33
2019-02-19T20:44:21.161Z,100301.51
2019-02-19T20:46:49.063Z,100302.59
2019-02-19T20:49:16.883Z,100298.42
2019-02-19T20:51:44.624Z,100306.61
2019-02-19T20:54:12.472Z,100296.34
2019-02-19T20:56:40.237Z,100309.16
2019-02-19T20:59:08.081Z,100300.02
2019-02-19T21:01:35.967Z,100304.52
2019-02-19T21:04:03.893Z,100301.54
2019-02-19T21:06:31.770Z,100300.48
2019-02-19T21:08:59.606Z,100297.13
2019-02-19T21:11:27.745Z,100296.60
2019-02-19T21:13:55.715Z,100287.67
2019-02-19T21:16:23.520Z,100295.72
2019-02-19T21:18:52.412Z,100285.78
2019-02-19T21:21:20.265Z,100293.69
2019-02-19T21:23:48.170Z,100295.02
2019-02-19T21:26:15.923Z,100279.19
2019-02-19T21:28:43.834Z,100285.78
2019-02-19T21:31:11.585Z,100297.66
2019-02-19T21:33:39.411Z,100292.51
2019-02-19T21:36:07.149Z,100293.56
2019-02-19T21:38:34.988Z,100293.71
2019-02-19T21:41:02.833Z,100300.06
2019-02-19T21:43:30.802Z,100300.66
2019-02-19T21:45:58.680Z,100297.42
2019-02-19T21:48:26.451Z,100299.70
2019-02-19T21:50:54.368Z,100307.87
2019-02-19T21:53:22.257Z,100300.98
2019-02-19T21:55:50.214Z,100308.86
2019-02-19T21:58:18.123Z,100302.88
2019-02-19T22:00:46.360Z,100304.91
2019-02-19T22:03:14.567Z,100301.45
2019-02-19T22:05:42.387Z,100303.11
2019-02-19T22:08:10.125Z,100301.70
2019-02-19T22:10:39.142Z,100296.81
2019-02-19T22:13:07.017Z,100294.69
2019-02-19T22:15:34.838Z,100300.19
2019-02-19T22:18:02.709Z,100300.95
2019-02-19T22:20:48.651Z,100290.31
2019-02-19T22:23:16.422Z,100294.26
2019-02-19T22:25:44.215Z,100297.76
2019-02-19T22:28:12.425Z,100299.44
2019-02-19T22:30:40.437Z,100292.28
2019-02-19T22:33:08.341Z,100292.55
2019-02-19T22:35:36.408Z,100289.55
2019-02-19T22:38:04.375Z,100299.38
2019-02-19T22:40:32.491Z,100297.66
2019-02-19T22:43:00.400Z,100296.69
2019-02-19T22:45:28.884Z,100301.49
2019-02-19T22:47:56.861Z,100291.98
2019-02-19T22:50:24.818Z,100305.77
2019-02-19T22:52:53.028Z,100302.48
2019-02-19T22:55:34.601Z,100304.97
2019-02-19T22:58:02.924Z,100298.07
2019-02-19T23:00:51.627Z,100303.84
2019-02-19T23:03:24.694Z,100310.11
2019-02-19T23:05:52.901Z,100308.18
2019-02-19T23:08:20.731Z,100303.06
2019-02-19T23:10:48.589Z,100302.95
2019-02-19T23:13:16.529Z,100313.73
2019-02-19T23:15:44.737Z,100315.54
2019-02-19T23:18:12.673Z,100318.78
2019-02-19T23:20:40.525Z,100318.78
2019-02-19T23:23:09.133Z,100316.86
2019-02-19T23:25:37.051Z,100318.42
2019-02-19T23:28:05.085Z,100318.06
2019-02-19T23:30:33.757Z,100308.96
2019-02-19T23:33:01.832Z,100316.36
2019-02-19T23:35:37.382Z,100307.86
2019-02-19T23:38:05.300Z,100305.86
2019-02-19T23:40:33.582Z,100307.17
2019-02-19T23:43:01.520Z,100305.23
2019-02-19T23:45:29.311Z,100305.86
2019-02-19T23:47:58.077Z,100314.19
2019-02-19T23:50:25.894Z,100308.50
2019-02-19T23:52:53.918Z,100310.66
2019-02-19T23:55:21.679Z,100309.67
2019-02-19T23:57:49.548Z,100299.33
